Time;durP1;ratioP1;P1;durP2;ratioP2;P2;SDS_P1;SDS_P2;PMS_P1;PMS_P2;Temp;Humidity;BMP_temperature;BMP_pressure;BME280_temperature;BME280_humidity;BME280_pressure;Samples;Min_cycle;Max_cycle;Signal;HPM_P1;HPM_P2
2022/10/15 00:00:50;;;;;;;7.10;6.00;;;;;;;14.44;98.84;100019.22;103740;1303;70347;-76
2022/10/15 00:03:16;;;;;;;7.00;6.10;;;;;;;14.44;98.74;100016.75;104549;1299;72495;-78
2022/10/15 00:05:43;;;;;;;7.40;6.20;;;;;;;14.42;98.74;100019.44;104305;1301;60406;-76
2022/10/15 00:08:10;;;;;;;9.40;6.40;;;;;;;14.42;98.80;100015.36;104151;1303;58326;-76
2022/10/15 00:10:37;;;;;;;8.00;6.80;;;;;;;14.41;98.85;100013.52;103747;1302;73423;-76
2022/10/15 00:13:04;;;;;;;7.90;6.70;;;;;;;14.40;99.04;100011.04;103860;1304;70895;-77
2022/10/15 00:15:31;;;;;;;8.70;6.50;;;;;;;14.37;99.37;100007.38;104135;1304;70493;-76
2022/10/15 00:17:57;;;;;;;8.60;6.90;;;;;;;14.37;99.15;100009.34;104086;1297;61774;-77
2022/10/15 00:20:24;;;;;;;8.30;7.00;;;;;;;14.36;99.46;100000.02;104147;1304;60383;-77
2022/10/15 00:22:50;;;;;;;8.50;7.40;;;;;;;14.37;99.34;99995.95;104083;1297;60599;-77
2022/10/15 00:25:17;;;;;;;9.90;8.00;;;;;;;14.38;99.14;99996.77;104427;1301;59652;-77
2022/10/15 00:27:43;;;;;;;10.20;8.60;;;;;;;14.38;99.03;99994.02;104019;1294;59291;-77
2022/10/15 00:30:10;;;;;;;11.50;8.50;;;;;;;14.39;98.68;99989.82;104188;1304;59239;-77
2022/10/15 00:32:37;;;;;;;10.40;8.60;;;;;;;14.40;98.45;99991.41;103887;1304;61590;-77
2022/10/15 00:35:04;;;;;;;12.40;8.90;;;;;;;14.40;98.27;99989.48;104406;1294;60339;-78
2022/10/15 00:37:30;;;;;;;9.90;8.60;;;;;;;14.38;98.12;99997.52;103726;1296;70985;-76
2022/10/15 00:39:56;;;;;;;9.70;8.70;;;;;;;14.36;97.95;99995.42;103902;1296;60640;-77
2022/10/15 00:42:23;;;;;;;10.80;8.90;;;;;;;14.34;97.63;99997.81;104252;1299;60520;-76
2022/10/15 00:44:56;;;;;;;10.00;9.00;;;;;;;14.31;97.65;100000.96;104556;1301;60142;-77
2022/10/15 00:47:28;;;;;;;10.20;9.20;;;;;;;14.26;97.70;100002.42;104259;1301;74640;-77
2022/10/15 00:50:00;;;;;;;12.00;9.60;;;;;;;14.20;97.63;100004.19;103638;1298;69486;-77
2022/10/15 00:52:36;;;;;;;11.90;10.20;;;;;;;14.16;97.87;100009.92;104016;1295;74090;-76
2022/10/15 00:55:11;;;;;;;12.00;10.50;;;;;;;14.13;97.66;100003.96;104270;1298;60420;-77
2022/10/15 00:57:40;;;;;;;11.90;10.10;;;;;;;14.07;97.69;99999.96;103855;1305;60424;-77
2022/10/15 01:00:10;;;;;;;12.20;10.70;;;;;;;14.03;97.69;99999.29;104108;1304;72424;-77
2022/10/15 01:02:36;;;;;;;11.10;9.70;;;;;;;13.99;97.71;100002.77;104486;1303;69651;-77
2022/10/15 01:05:04;;;;;;;11.80;9.90;;;;;;;13.94;97.75;100005.70;104549;1303;58265;-78
2022/10/15 01:07:30;;;;;;;12.20;10.30;;;;;;;13.88;97.73;100000.70;103899;1302;61955;-79
2022/10/15 01:09:57;;;;;;;13.20;10.30;;;;;;;13.83;97.84;99996.46;103907;1297;60555;-77
2022/10/15 01:12:57;;;;;;;11.70;10.50;;;;;;;13.76;98.16;99994.13;104263;1300;61085;-80
2022/10/15 01:15:47;;;;;;;13.30;10.80;;;;;;;13.70;98.09;99991.20;103832;1302;71996;-77
2022/10/15 01:18:18;;;;;;;13.20;11.40;;;;;;;13.63;98.54;99992.13;104251;1286;73782;-78
2022/10/15 01:21:01;;;;;;;12.50;10.80;;;;;;;13.58;98.84;99992.06;103777;1297;60398;-77
2022/10/15 01:24:05;;;;;;;15.00;11.10;;;;;;;13.52;98.59;99993.20;104023;1293;59510;-79
2022/10/15 01:26:44;;;;;;;16.40;11.80;;;;;;;13.46;99.02;99993.10;104247;1293;73790;-77
2022/10/15 01:29:48;;;;;;;14.00;11.60;;;;;;;13.42;99.28;99990.66;104330;1304;70213;-77
2022/10/15 01:32:37;;;;;;;13.40;11.00;;;;;;;13.36;99.26;99989.16;104008;1290;73287;-77
2022/10/15 01:35:19;;;;;;;14.40;11.80;;;;;;;13.33;99.45;99990.48;104090;1303;60477;-77
2022/10/15 01:38:02;;;;;;;14.70;12.00;;;;;;;13.27;99.63;99984.17;105026;1286;60165;-78
2022/10/15 01:40:54;;;;;;;14.80;11.90;;;;;;;13.23;99.75;99986.11;104891;1305;73208;-78
2022/10/15 01:43:55;;;;;;;17.60;13.10;;;;;;;13.20;99.80;99985.54;104243;1298;70861;-77
2022/10/15 01:46:43;;;;;;;16.30;12.90;;;;;;;13.15;99.82;99977.64;105422;1294;71239;-78
2022/10/15 01:49:14;;;;;;;16.10;12.90;;;;;;;13.12;99.94;99974.29;104165;1302;60366;-77
2022/10/15 01:51:43;;;;;;;13.90;12.40;;;;;;;13.10;99.94;99974.66;104585;1300;59437;-77
2022/10/15 01:54:16;;;;;;;15.30;12.50;;;;;;;13.06;99.92;99973.02;103675;1293;73942;-77
2022/10/15 01:56:48;;;;;;;15.90;12.60;;;;;;;13.01;99.71;99971.16;103652;1301;70883;-79
2022/10/15 01:59:18;;;;;;;16.00;12.40;;;;;;;12.96;99.64;99976.88;104606;1304;73153;-78
2022/10/15 02:01:45;;;;;;;16.40;12.70;;;;;;;12.91;99.95;99977.91;103726;1299;62031;-78
2022/10/15 02:04:28;;;;;;;15.40;12.50;;;;;;;12.87;99.87;99984.14;103710;1298;59427;-77
2022/10/15 02:07:38;;;;;;;16.20;13.20;;;;;;;12.82;99.93;99979.77;104132;1303;73284;-77
2022/10/15 02:10:22;;;;;;;17.20;12.70;;;;;;;12.76;99.97;99975.19;104053;1293;70009;-78
2022/10/15 02:13:14;;;;;;;18.10;13.00;;;;;;;12.71;100.00;99971.91;103683;1303;72470;-77
2022/10/15 02:16:11;;;;;;;16.80;12.50;;;;;;;12.65;100.00;99968.95;103957;1296;61265;-77
2022/10/15 02:18:57;;;;;;;16.10;11.70;;;;;;;12.58;100.00;99963.13;104233;1297;58781;-77
2022/10/15 02:21:51;;;;;;;17.70;12.50;;;;;;;12.52;99.97;99957.45;103804;1302;72835;-77
2022/10/15 02:24:31;;;;;;;18.20;12.80;;;;;;;12.45;100.00;99959.52;103891;1305;69683;-77
2022/10/15 02:27:01;;;;;;;16.70;11.80;;;;;;;12.39;99.92;99958.80;103564;1300;72484;-77
2022/10/15 02:29:35;;;;;;;15.00;11.90;;;;;;;12.32;99.83;99960.60;103317;1300;60447;-78
2022/10/15 02:32:05;;;;;;;12.90;10.70;;;;;;;12.24;99.55;99964.65;103905;1296;60553;-78
2022/10/15 02:34:33;;;;;;;16.20;12.60;;;;;;;12.15;99.41;99968.64;103855;1299;72794;-78
2022/10/15 02:37:02;;;;;;;20.40;13.20;;;;;;;12.09;99.80;99966.89;103956;1304;71144;-78
2022/10/15 02:39:29;;;;;;;17.70;12.20;;;;;;;12.04;99.99;99963.44;104102;1290;70963;-78
2022/10/15 02:41:56;;;;;;;17.10;13.40;;;;;;;12.01;100.00;99962.91;103422;1297;61019;-77
2022/10/15 02:44:22;;;;;;;18.00;13.20;;;;;;;11.98;100.00;99953.91;103602;1303;60586;-78
2022/10/15 02:46:49;;;;;;;18.40;13.10;;;;;;;11.96;100.00;99956.64;104017;1302;60411;-77
2022/10/15 02:49:15;;;;;;;17.10;13.00;;;;;;;11.94;100.00;99957.33;103769;1294;60527;-77
2022/10/15 02:51:42;;;;;;;17.40;13.80;;;;;;;11.91;100.00;99956.95;103723;1301;60421;-78
2022/10/15 02:54:08;;;;;;;18.00;13.30;;;;;;;11.87;100.00;99952.17;103620;1301;61790;-77
2022/10/15 02:56:34;;;;;;;22.70;14.00;;;;;;;11.83;100.00;99955.48;103982;1305;60541;-76
2022/10/15 02:59:01;;;;;;;22.30;14.80;;;;;;;11.80;100.00;99957.15;103165;1301;61889;-77
2022/10/15 03:01:28;;;;;;;20.10;13.70;;;;;;;11.78;100.00;99958.50;103590;1299;60510;-78
2022/10/15 03:03:54;;;;;;;25.10;14.50;;;;;;;11.77;100.00;99954.53;103557;1287;61757;-77
2022/10/15 03:06:21;;;;;;;30.50;14.60;;;;;;;11.75;100.00;99951.21;103845;1296;60611;-77
2022/10/15 03:08:47;;;;;;;55.00;15.30;;;;;;;11.75;100.00;99952.88;103787;1298;60505;-77
2022/10/15 03:11:14;;;;;;;36.20;15.40;;;;;;;11.72;100.00;99955.65;103589;1298;60521;-77
2022/10/15 03:13:41;;;;;;;20.90;13.10;;;;;;;11.70;100.00;99959.16;103475;1298;60584;-77
2022/10/15 03:16:09;;;;;;;20.30;13.10;;;;;;;11.68;100.00;99957.17;104245;1282;60235;-76
2022/10/15 03:18:35;;;;;;;21.90;13.90;;;;;;;11.66;100.00;99951.14;103277;1303;60533;-76
2022/10/15 03:21:06;;;;;;;17.40;11.20;;;;;;;11.64;100.00;99950.00;103606;1303;60491;-77
2022/10/15 03:23:32;;;;;;;79.60;13.80;;;;;;;11.61;100.00;99946.30;103792;1298;72778;-76
2022/10/15 03:26:04;;;;;;;77.90;14.60;;;;;;;11.59;100.00;99944.63;103688;1296;70488;-76
2022/10/15 03:28:30;;;;;;;28.30;12.20;;;;;;;11.57;100.00;99949.02;104118;1295;71850;-77
2022/10/15 03:30:57;;;;;;;19.60;13.20;;;;;;;11.54;100.00;99948.89;103559;1298;60723;-77
2022/10/15 03:33:23;;;;;;;20.90;13.80;;;;;;;11.49;100.00;99949.83;103606;1289;59511;-77
2022/10/15 03:35:51;;;;;;;20.50;13.90;;;;;;;11.45;100.00;99950.39;104111;1297;73374;-77
2022/10/15 03:38:18;;;;;;;19.50;13.10;;;;;;;11.39;100.00;99950.69;103201;1304;71457;-77
2022/10/15 03:40:45;;;;;;;21.00;14.10;;;;;;;11.34;100.00;99948.22;104403;1290;71140;-78
2022/10/15 03:43:11;;;;;;;18.20;13.00;;;;;;;11.30;100.00;99946.52;103839;1303;61769;-77
2022/10/15 03:45:38;;;;;;;56.00;13.20;;;;;;;11.26;100.00;99948.25;103752;1294;60689;-77
2022/10/15 03:48:05;;;;;;;30.80;12.60;;;;;;;11.22;100.00;99947.19;103552;1298;60599;-77
2022/10/15 03:50:32;;;;;;;150.20;17.70;;;;;;;11.20;100.00;99951.84;103141;1304;71085;-76
2022/10/15 03:52:58;;;;;;;215.10;19.60;;;;;;;11.17;100.00;99950.67;103951;1296;72760;-76
2022/10/15 03:55:24;;;;;;;22.40;12.70;;;;;;;11.13;100.00;99949.34;103583;1303;60602;-77
2022/10/15 03:57:51;;;;;;;21.70;13.30;;;;;;;11.09;100.00;99949.16;103696;1296;61558;-77
2022/10/15 04:00:17;;;;;;;21.00;13.30;;;;;;;11.04;100.00;99946.58;103912;1303;60547;-76
2022/10/15 04:02:44;;;;;;;20.20;12.70;;;;;;;11.00;100.00;99944.55;103993;1304;60534;-77
2022/10/15 04:05:10;;;;;;;18.60;13.00;;;;;;;10.97;100.00;99943.92;103863;1304;60662;-77
2022/10/15 04:07:37;;;;;;;16.50;12.40;;;;;;;10.93;100.00;99946.42;103657;1302;60529;-77
2022/10/15 04:10:03;;;;;;;16.70;11.60;;;;;;;10.88;100.00;99953.25;102914;1304;60384;-77
2022/10/15 04:12:30;;;;;;;15.40;11.40;;;;;;;10.85;100.00;99953.27;104230;1302;60478;-77
2022/10/15 04:14:56;;;;;;;17.50;11.80;;;;;;;10.81;100.00;99954.15;103500;1304;60595;-77
2022/10/15 04:17:22;;;;;;;14.60;10.80;;;;;;;10.76;100.00;99950.53;104398;1300;59421;-77
2022/10/15 04:19:49;;;;;;;14.90;10.80;;;;;;;10.73;100.00;99950.35;103875;1298;60595;-77
2022/10/15 04:22:15;;;;;;;17.10;11.10;;;;;;;10.70;100.00;99954.61;103979;1300;58782;-77
2022/10/15 04:24:42;;;;;;;16.60;10.90;;;;;;;10.68;100.00;99957.04;103162;1304;61113;-76
2022/10/15 04:27:09;;;;;;;16.90;11.70;;;;;;;10.68;100.00;99959.70;103688;1295;61058;-76
2022/10/15 04:29:35;;;;;;;19.60;12.60;;;;;;;10.68;100.00;99958.50;103315;1288;60628;-77
2022/10/15 04:32:02;;;;;;;18.60;11.90;;;;;;;10.66;100.00;99960.78;104575;1302;59765;-78
2022/10/15 04:34:29;;;;;;;18.20;12.20;;;;;;;10.66;100.00;99962.01;103950;1296;60568;-79
2022/10/15 04:36:55;;;;;;;18.30;11.70;;;;;;;10.66;100.00;99965.44;104373;1290;60617;-77
2022/10/15 04:39:22;;;;;;;19.00;11.90;;;;;;;10.65;100.00;99964.31;103485;1304;60555;-78
2022/10/15 04:41:48;;;;;;;19.70;12.80;;;;;;;10.64;100.00;99959.50;105327;1293;60345;-79
2022/10/15 04:44:14;;;;;;;22.10;12.60;;;;;;;10.62;100.00;99960.97;104931;1294;60493;-79
2022/10/15 04:46:41;;;;;;;20.00;11.20;;;;;;;10.60;100.00;99965.94;105196;1294;58354;-79
2022/10/15 04:49:07;;;;;;;16.50;11.70;;;;;;;10.58;100.00;99962.61;105276;1289;58424;-78
2022/10/15 04:51:34;;;;;;;41.00;14.50;;;;;;;10.56;100.00;99963.75;105371;1297;58323;-79
2022/10/15 04:54:00;;;;;;;20.40;12.20;;;;;;;10.55;100.00;99964.33;105283;1298;58627;-79
2022/10/15 04:56:27;;;;;;;22.30;12.70;;;;;;;10.53;100.00;99962.45;104733;1302;58312;-77
2022/10/15 04:58:53;;;;;;;22.40;11.70;;;;;;;10.50;100.00;99962.63;105068;1296;58754;-78
2022/10/15 05:01:20;;;;;;;40.00;13.10;;;;;;;10.48;100.00;99966.38;104313;1295;58557;-77
2022/10/15 05:03:48;;;;;;;21.50;12.20;;;;;;;10.48;100.00;99969.84;103608;1295;60517;-77
2022/10/15 05:06:21;;;;;;;20.70;11.70;;;;;;;10.46;100.00;99974.14;103651;1298;72561;-77
2022/10/15 05:08:48;;;;;;;21.00;12.30;;;;;;;10.45;100.00;99974.20;103924;1300;62011;-78
2022/10/15 05:11:26;;;;;;;24.90;13.20;;;;;;;10.45;100.00;99968.05;104052;1295;61528;-78
2022/10/15 05:13:54;;;;;;;25.70;13.60;;;;;;;10.45;100.00;99973.03;104014;1297;71364;-78
2022/10/15 05:16:27;;;;;;;22.70;12.90;;;;;;;10.44;100.00;99974.86;103640;1301;70230;-77
2022/10/15 05:18:59;;;;;;;21.60;12.70;;;;;;;10.42;100.00;99975.77;104074;1304;72559;-78
2022/10/15 05:21:27;;;;;;;22.40;13.30;;;;;;;10.42;100.00;99971.29;103639;1300;60686;-78
2022/10/15 05:23:54;;;;;;;25.40;12.30;;;;;;;10.41;100.00;99972.91;103685;1290;60855;-77
2022/10/15 05:26:23;;;;;;;22.00;13.30;;;;;;;10.39;100.00;99972.05;103238;1298;72801;-78
2022/10/15 05:28:50;;;;;;;19.70;12.50;;;;;;;10.38;100.00;99973.13;104076;1298;70872;-78
2022/10/15 05:31:22;;;;;;;20.50;13.00;;;;;;;10.35;100.00;99972.43;103925;1300;72769;-77
2022/10/15 05:33:50;;;;;;;27.60;15.10;;;;;;;10.31;100.00;99975.45;103910;1294;61968;-77
2022/10/15 05:36:21;;;;;;;30.20;16.00;;;;;;;10.27;100.00;99976.92;103096;1297;61626;-77
2022/10/15 05:38:53;;;;;;;31.80;15.50;;;;;;;10.28;100.00;99981.27;103427;1305;73011;-77
2022/10/15 05:41:20;;;;;;;26.20;14.60;;;;;;;10.29;100.00;99977.95;103573;1306;69751;-78
2022/10/15 05:43:48;;;;;;;25.60;14.20;;;;;;;10.29;100.00;99975.46;103245;1304;72196;-78
2022/10/15 05:46:16;;;;;;;23.60;13.40;;;;;;;10.29;100.00;99975.46;104127;1297;60585;-77
2022/10/15 05:48:50;;;;;;;22.50;13.50;;;;;;;10.28;100.00;99977.59;103670;1296;59232;-78
2022/10/15 05:51:17;;;;;;;35.80;15.00;;;;;;;10.25;100.00;99978.05;103856;1297;73684;-78
2022/10/15 05:53:45;;;;;;;76.30;17.10;;;;;;;10.24;100.00;99982.77;103687;1296;71243;-78
2022/10/15 05:56:12;;;;;;;79.10;17.40;;;;;;;10.19;100.00;99991.09;103815;1296;73222;-78
2022/10/15 05:58:39;;;;;;;108.80;16.80;;;;;;;10.15;100.00;99994.15;104390;1299;60542;-81
2022/10/15 06:01:09;;;;;;;124.70;16.70;;;;;;;10.12;100.00;99998.80;103919;1304;61594;-76
2022/10/15 06:03:36;;;;;;;79.40;14.00;;;;;;;10.10;100.00;100004.42;103472;1297;74955;-73
2022/10/15 06:06:03;;;;;;;85.60;15.60;;;;;;;10.13;100.00;100012.03;103499;1296;69340;-74
2022/10/15 06:08:30;;;;;;;148.40;18.90;;;;;;;10.16;100.00;100010.89;104147;1298;72597;-75
2022/10/15 06:11:02;;;;;;;123.50;17.70;;;;;;;10.21;100.00;100002.94;103201;1297;63107;-74
2022/10/15 06:13:37;;;;;;;153.50;19.90;;;;;;;10.27;100.00;99999.27;103421;1297;60376;-75
2022/10/15 06:16:03;;;;;;;32.40;15.10;;;;;;;10.29;100.00;99997.70;103562;1304;72772;-75
2022/10/15 06:18:30;;;;;;;37.00;15.50;;;;;;;10.33;100.00;99997.45;103705;1304;69825;-75
2022/10/15 06:20:56;;;;;;;28.00;15.00;;;;;;;10.39;100.00;99998.77;103723;1304;71309;-75
2022/10/15 06:23:23;;;;;;;27.90;14.50;;;;;;;10.47;100.00;99997.16;103162;1297;60624;-75
2022/10/15 06:25:49;;;;;;;30.20;16.40;;;;;;;10.54;100.00;99998.33;103839;1304;60580;-75
2022/10/15 06:28:16;;;;;;;25.50;14.30;;;;;;;10.61;100.00;99996.41;104021;1301;59636;-75
2022/10/15 06:30:43;;;;;;;23.60;14.20;;;;;;;10.68;100.00;99993.94;103920;1288;60334;-75
2022/10/15 06:33:10;;;;;;;26.50;13.50;;;;;;;10.76;100.00;99995.06;103358;1298;71397;-75
2022/10/15 06:35:41;;;;;;;18.70;11.80;;;;;;;10.85;100.00;100000.56;103718;1304;60877;-75
2022/10/15 06:38:08;;;;;;;18.70;12.60;;;;;;;10.88;100.00;100004.38;103493;1297;60494;-75
2022/10/15 06:40:36;;;;;;;17.10;10.20;;;;;;;10.92;100.00;100012.20;104471;1295;73986;-75
2022/10/15 06:43:06;;;;;;;16.40;10.90;;;;;;;10.97;100.00;100017.08;103636;1295;68953;-77
2022/10/15 06:45:36;;;;;;;17.30;10.40;;;;;;;11.02;100.00;100021.20;104096;1296;73944;-75
2022/10/15 06:48:04;;;;;;;17.90;10.00;;;;;;;11.11;100.00;100021.59;104269;1291;64107;-75
2022/10/15 06:50:37;;;;;;;18.30;10.70;;;;;;;11.23;100.00;100026.67;103448;1295;60909;-73
2022/10/15 06:53:04;;;;;;;23.30;12.50;;;;;;;11.35;100.00;100027.92;103347;1304;73768;-74
2022/10/15 06:55:31;;;;;;;18.30;10.70;;;;;;;11.47;100.00;100032.93;103291;1290;71040;-75
2022/10/15 06:57:58;;;;;;;20.40;11.70;;;;;;;11.55;100.00;100034.91;104048;1303;71242;-75
2022/10/15 07:00:24;;;;;;;19.90;12.00;;;;;;;11.61;100.00;100039.69;103384;1303;61125;-75
2022/10/15 07:02:51;;;;;;;24.60;13.60;;;;;;;11.69;100.00;100040.95;104115;1302;60498;-74
2022/10/15 07:05:19;;;;;;;21.20;12.60;;;;;;;11.81;100.00;100042.39;103787;1301;72818;-75
2022/10/15 07:07:56;;;;;;;23.70;14.00;;;;;;;11.94;100.00;100044.63;103703;1299;69827;-76
2022/10/15 07:10:24;;;;;;;25.50;15.00;;;;;;;12.06;100.00;100047.48;103798;1295;72526;-76
2022/10/15 07:12:51;;;;;;;28.30;15.90;;;;;;;12.20;100.00;100046.38;103081;1304;60586;-75
2022/10/15 07:15:18;;;;;;;35.80;20.60;;;;;;;12.34;100.00;100049.52;103696;1298;60480;-76
2022/10/15 07:17:52;;;;;;;31.70;18.00;;;;;;;12.49;100.00;100048.06;103346;1294;291907;-76
2022/10/15 07:20:19;;;;;;;34.00;18.70;;;;;;;12.64;100.00;100048.59;103604;1303;71605;-76
2022/10/15 07:22:50;;;;;;;34.40;18.20;;;;;;;12.79;100.00;100053.84;104390;1286;72870;-75
2022/10/15 07:25:17;;;;;;;40.30;25.40;;;;;;;12.94;100.00;100058.25;103699;1297;60428;-73
2022/10/15 07:27:43;;;;;;;33.70;19.40;;;;;;;13.06;100.00;100055.33;103436;1296;60435;-72
2022/10/15 07:30:10;;;;;;;32.30;19.40;;;;;;;13.20;100.00;100055.85;103564;1290;60485;-73
2022/10/15 07:32:36;;;;;;;31.10;19.40;;;;;;;13.33;100.00;100052.45;103234;1288;60604;-74
2022/10/15 07:35:04;;;;;;;30.60;18.30;;;;;;;13.48;100.00;100053.03;103533;1297;60490;-73
2022/10/15 07:37:30;;;;;;;33.80;19.70;;;;;;;13.58;100.00;100051.77;103909;1296;60460;-76
2022/10/15 07:39:57;;;;;;;29.80;20.00;;;;;;;13.69;100.00;100049.92;104316;1295;59837;-73
2022/10/15 07:42:23;;;;;;;28.40;18.30;;;;;;;13.78;100.00;100050.01;103886;1294;59139;-73
2022/10/15 07:44:50;;;;;;;30.50;20.00;;;;;;;13.87;100.00;100053.13;103638;1288;59984;-74
2022/10/15 07:47:16;;;;;;;29.10;19.10;;;;;;;13.97;100.00;100053.04;103969;1295;60550;-74
2022/10/15 07:49:43;;;;;;;26.80;18.60;;;;;;;14.05;99.89;100053.41;103806;1304;60494;-74
2022/10/15 07:52:09;;;;;;;116.30;98.40;;;;;;;14.11;99.62;100053.86;103851;1291;60866;-75
2022/10/15 07:54:36;;;;;;;33.40;22.60;;;;;;;14.17;99.36;100057.97;104028;1301;59335;-74
2022/10/15 07:57:03;;;;;;;31.80;22.40;;;;;;;14.25;99.42;100056.00;104320;1297;69642;-72
2022/10/15 07:59:29;;;;;;;38.10;28.10;;;;;;;14.32;99.37;100056.45;104078;1290;70297;-73
2022/10/15 08:01:55;;;;;;;34.30;21.90;;;;;;;14.40;99.08;100057.46;104406;1294;59219;-73
2022/10/15 08:04:22;;;;;;;33.90;22.60;;;;;;;14.47;98.66;100056.63;103612;1298;60605;-75
2022/10/15 08:06:48;;;;;;;34.80;21.10;;;;;;;14.54;98.37;100054.58;103556;1304;60600;-74
2022/10/15 08:09:16;;;;;;;29.10;20.00;;;;;;;14.64;98.52;100048.17;103436;1304;60529;-74
2022/10/15 08:11:42;;;;;;;28.50;19.00;;;;;;;14.74;97.77;100049.19;103934;1297;70637;-74
2022/10/15 08:14:09;;;;;;;26.70;18.30;;;;;;;14.79;97.43;100044.59;104171;1297;60746;-73
2022/10/15 08:16:35;;;;;;;24.80;18.00;;;;;;;14.84;97.39;100037.73;103913;1297;60720;-74
2022/10/15 08:19:02;;;;;;;26.30;18.00;;;;;;;14.87;96.59;100044.44;104113;1297;60475;-76
2022/10/15 08:21:29;;;;;;;24.60;18.00;;;;;;;14.96;97.15;100049.91;103832;1295;70544;-73
2022/10/15 08:23:55;;;;;;;26.40;19.60;;;;;;;15.11;97.06;100050.17;103462;1295;60896;-74
2022/10/15 08:26:21;;;;;;;24.60;18.30;;;;;;;15.24;96.73;100054.83;103299;1297;60490;-73
2022/10/15 08:28:49;;;;;;;27.80;19.20;;;;;;;15.30;95.44;100053.73;103546;1290;59596;-74
2022/10/15 08:31:18;;;;;;;24.80;18.50;;;;;;;15.43;95.81;100054.11;103860;1294;72938;-74
2022/10/15 08:33:45;;;;;;;24.40;18.10;;;;;;;15.53;94.84;100057.17;103193;1302;69562;-74
2022/10/15 08:36:11;;;;;;;25.40;17.60;;;;;;;15.60;93.91;100055.45;104322;1289;72781;-73
2022/10/15 08:38:38;;;;;;;22.90;17.30;;;;;;;15.64;93.14;100058.28;103881;1287;59213;-74
2022/10/15 08:41:18;;;;;;;22.60;17.00;;;;;;;15.68;92.80;100061.50;103614;1290;60548;-73
2022/10/15 08:43:46;;;;;;;21.80;16.90;;;;;;;15.70;91.90;100064.55;103334;1294;72281;-73
2022/10/15 08:46:18;;;;;;;21.10;16.40;;;;;;;15.72;92.09;100062.69;103389;1294;69800;-72
2022/10/15 08:48:49;;;;;;;20.80;16.60;;;;;;;15.77;92.18;100065.56;103663;1297;72541;-73
2022/10/15 08:51:20;;;;;;;21.30;16.60;;;;;;;15.81;91.98;100062.77;103670;1296;60550;-74
2022/10/15 08:53:51;;;;;;;20.90;16.70;;;;;;;15.87;91.91;100057.77;104254;1297;60976;-74
2022/10/15 08:56:32;;;;;;;23.10;17.00;;;;;;;15.94;91.88;100058.94;104060;1293;73672;-72
2022/10/15 08:59:21;;;;;;;19.10;16.60;;;;;;;15.99;91.51;100057.19;103282;1295;69986;-74
2022/10/15 09:02:15;;;;;;;21.40;16.20;;;;;;;15.94;90.41;100055.23;103241;1301;73224;-73
2022/10/15 09:04:58;;;;;;;21.80;16.60;;;;;;;15.88;90.32;100061.51;103502;1297;61014;-74
2022/10/15 09:07:28;;;;;;;20.90;16.90;;;;;;;15.83;90.32;100063.02;103286;1303;60943;-74
2022/10/15 09:10:39;;;;;;;22.20;17.40;;;;;;;15.82;90.86;100063.58;104503;1295;73929;-74
2022/10/15 09:13:32;;;;;;;21.00;17.10;;;;;;;15.86;91.02;100063.98;104156;1293;70867;-73
2022/10/15 09:16:04;;;;;;;21.90;17.20;;;;;;;15.92;91.13;100064.77;103975;1298;71261;-74
2022/10/15 09:18:34;;;;;;;20.90;16.20;;;;;;;16.04;91.35;100060.31;103410;1291;61028;-73
2022/10/15 09:21:03;;;;;;;20.60;16.30;;;;;;;16.16;90.39;100063.96;103102;1303;61184;-73
2022/10/15 09:23:34;;;;;;;20.30;16.10;;;;;;;16.33;90.41;100062.05;103337;1295;72312;-73
2022/10/15 09:26:03;;;;;;;19.20;15.50;;;;;;;16.51;90.02;100064.69;104206;1297;69787;-73
2022/10/15 09:28:45;;;;;;;18.30;15.40;;;;;;;16.65;89.34;100066.27;103995;1304;71146;-73
2022/10/15 09:31:15;;;;;;;18.60;16.00;;;;;;;16.82;88.84;100066.48;104114;1281;60879;-74
2022/10/15 09:33:50;;;;;;;21.60;16.40;;;;;;;16.98;88.49;100065.77;103353;1304;60481;-73
2022/10/15 09:36:31;;;;;;;20.10;16.20;;;;;;;17.07;86.43;100069.92;103858;1297;73272;-74
2022/10/15 09:39:06;;;;;;;19.70;16.80;;;;;;;17.11;85.42;100064.93;103083;1296;69867;-74
2022/10/15 09:42:06;;;;;;;20.80;17.10;;;;;;;17.08;84.96;100065.30;103411;1296;73144;-75
2022/10/15 09:44:37;;;;;;;22.40;18.60;;;;;;;17.06;85.63;100064.53;104261;1304;60532;-73
2022/10/15 09:47:25;;;;;;;21.40;17.60;;;;;;;17.00;84.64;100064.23;103689;1304;61012;-73
2022/10/15 09:49:51;;;;;;;21.10;18.00;;;;;;;16.98;84.64;100066.50;103521;1297;73656;-73
2022/10/15 09:52:36;;;;;;;22.00;18.90;;;;;;;16.98;84.52;100059.75;104165;1295;60677;-73
2022/10/15 09:55:22;;;;;;;20.80;18.00;;;;;;;17.03;84.87;100061.42;103756;1296;72448;-74
2022/10/15 09:57:53;;;;;;;21.90;18.30;;;;;;;17.12;84.01;100060.86;103741;1295;61409;-72
2022/10/15 10:00:20;;;;;;;21.00;17.10;;;;;;;17.35;84.37;100059.41;103343;1294;60042;-73
2022/10/15 10:03:13;;;;;;;18.80;16.20;;;;;;;17.67;83.92;100056.08;103942;1297;72892;-73
2022/10/15 10:05:42;;;;;;;17.40;15.30;;;;;;;17.84;81.91;100051.25;103385;1297;70273;-73
2022/10/15 10:08:21;;;;;;;16.80;14.70;;;;;;;17.90;81.12;100052.23;103778;1303;72067;-73
2022/10/15 10:10:55;;;;;;;15.50;13.30;;;;;;;17.91;80.55;100055.27;103328;1304;62095;-73
2022/10/15 10:13:50;;;;;;;11.00;9.80;;;;;;;17.96;78.79;100062.64;103855;1294;61256;-73
2022/10/15 10:16:19;;;;;;;10.50;9.40;;;;;;;17.98;77.44;100059.41;103820;1295;73676;-72
2022/10/15 10:19:12;;;;;;;10.60;9.50;;;;;;;18.11;77.96;100063.46;103527;1295;69606;-72
2022/10/15 10:21:41;;;;;;;9.00;7.90;;;;;;;18.18;75.87;100065.84;103446;1295;71141;-72
2022/10/15 10:24:19;;;;;;;8.70;7.80;;;;;;;18.24;74.47;100067.68;103618;1301;60731;-73
2022/10/15 10:26:47;;;;;;;8.10;7.30;;;;;;;18.24;74.22;100065.85;103650;1296;60601;-74
2022/10/15 10:29:21;;;;;;;9.70;7.40;;;;;;;18.33;74.86;100066.16;103258;1301;73793;-74
2022/10/15 10:32:09;;;;;;;8.80;7.70;;;;;;;18.32;74.74;100059.39;103235;1290;71196;-73
2022/10/15 10:34:36;;;;;;;8.70;7.40;;;;;;;18.33;74.88;100056.02;103368;1288;73462;-73
2022/10/15 10:37:04;;;;;;;8.20;7.20;;;;;;;18.32;74.98;100057.79;103769;1297;60966;-74
2022/10/15 10:39:32;;;;;;;7.40;6.60;;;;;;;18.29;74.57;100054.56;103938;1296;60474;-73
2022/10/15 10:42:21;;;;;;;7.30;6.20;;;;;;;18.28;75.07;100054.59;103872;1296;73886;-72
2022/10/15 10:44:48;;;;;;;5.70;5.10;;;;;;;18.28;73.45;100057.92;105334;1297;70995;-72
2022/10/15 10:47:20;;;;;;;6.00;5.40;;;;;;;18.22;72.67;100056.05;104827;1301;60478;-72
2022/10/15 10:49:51;;;;;;;5.60;5.10;;;;;;;18.19;72.37;100056.41;104421;1295;61462;-73
2022/10/15 10:52:28;;;;;;;6.10;5.50;;;;;;;18.21;71.76;100057.38;105266;1295;59668;-72
2022/10/15 10:55:01;;;;;;;7.00;6.10;;;;;;;18.25;69.94;100052.88;104838;1297;72516;-72
2022/10/15 10:57:55;;;;;;;7.10;6.40;;;;;;;18.29;70.14;100049.35;103999;1302;70497;-74
2022/10/15 11:00:39;;;;;;;7.10;6.40;;;;;;;18.42;71.16;100038.61;104644;1280;72357;-72
2022/10/15 11:03:19;;;;;;;7.00;6.30;;;;;;;18.53;70.80;100037.83;103501;1294;61386;-72
2022/10/15 11:05:49;;;;;;;7.70;6.90;;;;;;;18.63;70.18;100042.19;104235;1296;60405;-72
2022/10/15 11:08:25;;;;;;;7.40;6.50;;;;;;;18.66;69.42;100046.79;103833;1298;73609;-72
2022/10/15 11:11:12;;;;;;;7.10;6.40;;;;;;;18.68;68.30;100050.16;105445;1294;68694;-72
2022/10/15 11:13:41;;;;;;;7.00;6.30;;;;;;;18.70;67.90;100051.27;103956;1288;72450;-72
2022/10/15 11:16:41;;;;;;;6.70;6.00;;;;;;;18.79;67.86;100050.55;103797;1290;62431;-72
2022/10/15 11:19:22;;;;;;;8.20;7.20;;;;;;;18.97;68.19;100047.91;103021;1298;60482;-71
2022/10/15 11:22:35;;;;;;;7.10;6.20;;;;;;;19.12;66.76;100040.90;103367;1298;73398;-72
2022/10/15 11:25:34;;;;;;;7.40;5.90;;;;;;;19.21;65.53;100039.14;103490;1297;69618;-72